sensor_id;sensor_type;location;lat;lon;timestamp;P1;durP1;ratioP1;P2;durP2;ratioP2
18455;SDS011;9357;49.900;8.208;2022-09-14T00:01:15;10.97;;;8.90;;
18455;SDS011;9357;49.900;8.208;2022-09-14T00:02:56;11.70;;;8.93;;
18455;SDS011;9357;49.900;8.208;2022-09-14T00:04:29;11.40;;;9.27;;
18455;SDS011;9357;49.900;8.208;2022-09-14T00:06:04;11.57;;;9.10;;
18455;SDS011;9357;49.900;8.208;2022-09-14T00:07:37;12.10;;;10.83;;
18455;SDS011;9357;49.900;8.208;2022-09-14T00:09:12;11.23;;;9.27;;
18455;SDS011;9357;49.900;8.208;2022-09-14T00:10:47;11.60;;;9.63;;
18455;SDS011;9357;49.900;8.208;2022-09-14T00:12:20;10.77;;;8.27;;
18455;SDS011;9357;49.900;8.208;2022-09-14T00:13:53;14.13;;;10.53;;
18455;SDS011;9357;49.900;8.208;2022-09-14T00:15:26;14.97;;;10.90;;
18455;SDS011;9357;49.900;8.208;2022-09-14T00:16:58;15.10;;;11.10;;
18455;SDS011;9357;49.900;8.208;2022-09-14T00:18:31;11.30;;;10.10;;
18455;SDS011;9357;49.900;8.208;2022-09-14T00:20:04;13.00;;;10.10;;
18455;SDS011;9357;49.900;8.208;2022-09-14T00:21:39;11.60;;;10.03;;
18455;SDS011;9357;49.900;8.208;2022-09-14T00:23:12;11.37;;;10.17;;
18455;SDS011;9357;49.900;8.208;2022-09-14T00:24:44;12.93;;;10.07;;
18455;SDS011;9357;49.900;8.208;2022-09-14T00:26:18;12.20;;;10.37;;
18455;SDS011;9357;49.900;8.208;2022-09-14T00:27:52;14.53;;;11.03;;
18455;SDS011;9357;49.900;8.208;2022-09-14T00:29:24;11.90;;;10.57;;
18455;SDS011;9357;49.900;8.208;2022-09-14T00:30:56;9.87;;;8.87;;
18455;SDS011;9357;49.900;8.208;2022-09-14T00:32:29;9.33;;;8.30;;
18455;SDS011;9357;49.900;8.208;2022-09-14T00:34:02;11.10;;;8.57;;
18455;SDS011;9357;49.900;8.208;2022-09-14T00:35:36;9.70;;;8.13;;
18455;SDS011;9357;49.900;8.208;2022-09-14T00:37:11;11.20;;;9.97;;
18455;SDS011;9357;49.900;8.208;2022-09-14T00:38:44;13.10;;;9.70;;
18455;SDS011;9357;49.900;8.208;2022-09-14T00:40:17;11.83;;;10.60;;
18455;SDS011;9357;49.900;8.208;2022-09-14T00:41:50;12.13;;;10.87;;
18455;SDS011;9357;49.900;8.208;2022-09-14T00:43:23;16.93;;;12.00;;
18455;SDS011;9357;49.900;8.208;2022-09-14T00:45:07;15.63;;;11.30;;
18455;SDS011;9357;49.900;8.208;2022-09-14T00:46:48;16.70;;;11.80;;
18455;SDS011;9357;49.900;8.208;2022-09-14T00:48:22;12.33;;;10.70;;
18455;SDS011;9357;49.900;8.208;2022-09-14T00:49:56;13.43;;;10.67;;
18455;SDS011;9357;49.900;8.208;2022-09-14T00:51:31;12.50;;;9.40;;
18455;SDS011;9357;49.900;8.208;2022-09-14T00:53:05;10.93;;;8.50;;
18455;SDS011;9357;49.900;8.208;2022-09-14T00:54:39;13.00;;;9.40;;
18455;SDS011;9357;49.900;8.208;2022-09-14T00:56:13;14.50;;;10.93;;
18455;SDS011;9357;49.900;8.208;2022-09-14T00:57:47;14.53;;;10.70;;
18455;SDS011;9357;49.900;8.208;2022-09-14T00:59:24;12.30;;;8.63;;
18455;SDS011;9357;49.900;8.208;2022-09-14T01:00:59;14.80;;;10.07;;
18455;SDS011;9357;49.900;8.208;2022-09-14T01:02:32;14.87;;;11.17;;
18455;SDS011;9357;49.900;8.208;2022-09-14T01:04:05;12.80;;;10.83;;
18455;SDS011;9357;49.900;8.208;2022-09-14T01:05:42;10.77;;;9.37;;
18455;SDS011;9357;49.900;8.208;2022-09-14T01:07:30;12.43;;;8.80;;
18455;SDS011;9357;49.900;8.208;2022-09-14T01:09:17;13.30;;;10.37;;
18455;SDS011;9357;49.900;8.208;2022-09-14T01:11:05;12.10;;;10.20;;
18455;SDS011;9357;49.900;8.208;2022-09-14T01:12:58;12.40;;;11.10;;
18455;SDS011;9357;49.900;8.208;2022-09-14T01:14:41;11.67;;;9.00;;
18455;SDS011;9357;49.900;8.208;2022-09-14T01:16:23;14.27;;;10.13;;
18455;SDS011;9357;49.900;8.208;2022-09-14T01:18:03;9.00;;;8.00;;
18455;SDS011;9357;49.900;8.208;2022-09-14T01:19:50;10.27;;;9.10;;
18455;SDS011;9357;49.900;8.208;2022-09-14T01:21:37;12.57;;;9.10;;
18455;SDS011;9357;49.900;8.208;2022-09-14T01:23:15;10.73;;;9.60;;
18455;SDS011;9357;49.900;8.208;2022-09-14T01:24:55;11.87;;;9.30;;
18455;SDS011;9357;49.900;8.208;2022-09-14T01:28:48;13.50;;;11.40;;
18455;SDS011;9357;49.900;8.208;2022-09-14T01:30:25;15.67;;;12.67;;
18455;SDS011;9357;49.900;8.208;2022-09-14T01:32:03;16.60;;;13.17;;
18455;SDS011;9357;49.900;8.208;2022-09-14T01:33:44;19.23;;;14.83;;
18455;SDS011;9357;49.900;8.208;2022-09-14T01:35:23;19.90;;;14.77;;
18455;SDS011;9357;49.900;8.208;2022-09-14T01:37:03;19.13;;;15.03;;
18455;SDS011;9357;49.900;8.208;2022-09-14T01:38:43;20.30;;;15.33;;
18455;SDS011;9357;49.900;8.208;2022-09-14T01:40:21;17.77;;;14.73;;
18455;SDS011;9357;49.900;8.208;2022-09-14T01:41:58;19.43;;;15.57;;
18455;SDS011;9357;49.900;8.208;2022-09-14T01:43:33;14.20;;;12.17;;
18455;SDS011;9357;49.900;8.208;2022-09-14T01:45:12;16.27;;;12.63;;
18455;SDS011;9357;49.900;8.208;2022-09-14T01:46:50;17.43;;;13.23;;
18455;SDS011;9357;49.900;8.208;2022-09-14T01:48:29;13.60;;;11.67;;
18455;SDS011;9357;49.900;8.208;2022-09-14T01:50:06;17.40;;;13.37;;
18455;SDS011;9357;49.900;8.208;2022-09-14T01:51:43;19.13;;;14.57;;
18455;SDS011;9357;49.900;8.208;2022-09-14T01:53:18;20.00;;;16.03;;
18455;SDS011;9357;49.900;8.208;2022-09-14T01:54:55;24.47;;;16.83;;
18455;SDS011;9357;49.900;8.208;2022-09-14T01:56:32;20.43;;;16.40;;
18455;SDS011;9357;49.900;8.208;2022-09-14T01:58:11;17.70;;;15.13;;
18455;SDS011;9357;49.900;8.208;2022-09-14T01:59:49;18.90;;;14.93;;
18455;SDS011;9357;49.900;8.208;2022-09-14T02:01:27;19.83;;;15.57;;
18455;SDS011;9357;49.900;8.208;2022-09-14T02:03:02;19.70;;;16.40;;
18455;SDS011;9357;49.900;8.208;2022-09-14T02:04:40;22.57;;;16.40;;
18455;SDS011;9357;49.900;8.208;2022-09-14T02:06:18;21.60;;;16.73;;
18455;SDS011;9357;49.900;8.208;2022-09-14T02:07:55;24.33;;;18.47;;
18455;SDS011;9357;49.900;8.208;2022-09-14T02:09:27;27.00;;;20.00;;
18455;SDS011;9357;49.900;8.208;2022-09-14T02:11:00;28.63;;;21.40;;
18455;SDS011;9357;49.900;8.208;2022-09-14T02:12:33;33.83;;;22.83;;
18455;SDS011;9357;49.900;8.208;2022-09-14T02:14:06;37.93;;;25.47;;
18455;SDS011;9357;49.900;8.208;2022-09-14T02:15:40;39.50;;;26.47;;
18455;SDS011;9357;49.900;8.208;2022-09-14T02:17:13;36.13;;;25.57;;
18455;SDS011;9357;49.900;8.208;2022-09-14T02:18:46;43.17;;;27.63;;
18455;SDS011;9357;49.900;8.208;2022-09-14T02:20:20;44.13;;;28.10;;
18455;SDS011;9357;49.900;8.208;2022-09-14T02:21:55;42.43;;;29.03;;
18455;SDS011;9357;49.900;8.208;2022-09-14T02:23:27;47.07;;;30.67;;
18455;SDS011;9357;49.900;8.208;2022-09-14T02:25:00;43.27;;;28.87;;
18455;SDS011;9357;49.900;8.208;2022-09-14T02:26:33;41.97;;;28.83;;
18455;SDS011;9357;49.900;8.208;2022-09-14T02:28:07;45.37;;;29.17;;
18455;SDS011;9357;49.900;8.208;2022-09-14T02:29:40;41.13;;;28.70;;
18455;SDS011;9357;49.900;8.208;2022-09-14T02:31:15;44.50;;;29.43;;
18455;SDS011;9357;49.900;8.208;2022-09-14T02:32:59;49.50;;;29.93;;
18455;SDS011;9357;49.900;8.208;2022-09-14T02:34:41;44.50;;;29.10;;
18455;SDS011;9357;49.900;8.208;2022-09-14T02:36:23;45.07;;;29.47;;
18455;SDS011;9357;49.900;8.208;2022-09-14T02:38:03;48.40;;;30.97;;
18455;SDS011;9357;49.900;8.208;2022-09-14T02:39:44;40.63;;;27.97;;
18455;SDS011;9357;49.900;8.208;2022-09-14T02:41:21;43.13;;;27.00;;
18455;SDS011;9357;49.900;8.208;2022-09-14T02:43:09;36.33;;;25.23;;
18455;SDS011;9357;49.900;8.208;2022-09-14T02:44:52;37.90;;;25.50;;
18455;SDS011;9357;49.900;8.208;2022-09-14T02:46:35;34.77;;;23.80;;
18455;SDS011;9357;49.900;8.208;2022-09-14T02:48:18;37.90;;;25.43;;
18455;SDS011;9357;49.900;8.208;2022-09-14T02:49:56;35.07;;;25.07;;
18455;SDS011;9357;49.900;8.208;2022-09-14T02:51:34;32.77;;;24.03;;
18455;SDS011;9357;49.900;8.208;2022-09-14T02:53:12;36.30;;;24.67;;
18455;SDS011;9357;49.900;8.208;2022-09-14T02:54:49;40.57;;;25.93;;
18455;SDS011;9357;49.900;8.208;2022-09-14T02:56:27;29.83;;;22.13;;
18455;SDS011;9357;49.900;8.208;2022-09-14T02:58:01;32.93;;;24.23;;
18455;SDS011;9357;49.900;8.208;2022-09-14T02:59:34;31.00;;;23.00;;
18455;SDS011;9357;49.900;8.208;2022-09-14T03:01:08;33.03;;;22.53;;
18455;SDS011;9357;49.900;8.208;2022-09-14T03:02:44;30.30;;;22.20;;
18455;SDS011;9357;49.900;8.208;2022-09-14T03:04:15;23.07;;;17.53;;
18455;SDS011;9357;49.900;8.208;2022-09-14T03:05:48;26.87;;;21.30;;
18455;SDS011;9357;49.900;8.208;2022-09-14T03:07:21;26.33;;;20.40;;
18455;SDS011;9357;49.900;8.208;2022-09-14T03:08:53;28.53;;;20.77;;
18455;SDS011;9357;49.900;8.208;2022-09-14T03:10:26;25.53;;;19.37;;
18455;SDS011;9357;49.900;8.208;2022-09-14T03:11:58;20.50;;;17.40;;
18455;SDS011;9357;49.900;8.208;2022-09-14T03:13:31;22.63;;;17.57;;
18455;SDS011;9357;49.900;8.208;2022-09-14T03:15:05;20.03;;;15.60;;
18455;SDS011;9357;49.900;8.208;2022-09-14T03:16:38;17.43;;;15.13;;
18455;SDS011;9357;49.900;8.208;2022-09-14T03:18:12;17.00;;;14.03;;
18455;SDS011;9357;49.900;8.208;2022-09-14T03:19:45;17.33;;;14.17;;
18455;SDS011;9357;49.900;8.208;2022-09-14T03:21:18;15.97;;;12.83;;
18455;SDS011;9357;49.900;8.208;2022-09-14T03:22:50;14.90;;;12.60;;
18455;SDS011;9357;49.900;8.208;2022-09-14T03:24:22;12.50;;;11.20;;
18455;SDS011;9357;49.900;8.208;2022-09-14T03:25:55;17.67;;;15.27;;
18455;SDS011;9357;49.900;8.208;2022-09-14T03:27:28;17.27;;;15.00;;
18455;SDS011;9357;49.900;8.208;2022-09-14T03:29:01;18.90;;;15.60;;
18455;SDS011;9357;49.900;8.208;2022-09-14T03:30:35;19.77;;;16.07;;
18455;SDS011;9357;49.900;8.208;2022-09-14T03:32:08;19.70;;;16.00;;
18455;SDS011;9357;49.900;8.208;2022-09-14T03:33:42;21.40;;;16.93;;
18455;SDS011;9357;49.900;8.208;2022-09-14T03:35:15;15.97;;;14.27;;
18455;SDS011;9357;49.900;8.208;2022-09-14T03:36:48;22.93;;;17.70;;
18455;SDS011;9357;49.900;8.208;2022-09-14T03:38:20;24.00;;;17.90;;
18455;SDS011;9357;49.900;8.208;2022-09-14T03:39:54;24.07;;;18.53;;
18455;SDS011;9357;49.900;8.208;2022-09-14T03:41:27;23.97;;;18.53;;
18455;SDS011;9357;49.900;8.208;2022-09-14T03:43:00;20.27;;;16.23;;
18455;SDS011;9357;49.900;8.208;2022-09-14T03:44:32;24.97;;;18.60;;
18455;SDS011;9357;49.900;8.208;2022-09-14T03:46:05;21.93;;;17.23;;
18455;SDS011;9357;49.900;8.208;2022-09-14T03:47:38;20.33;;;16.53;;
18455;SDS011;9357;49.900;8.208;2022-09-14T03:49:12;20.20;;;16.20;;
18455;SDS011;9357;49.900;8.208;2022-09-14T03:50:45;18.43;;;13.90;;
18455;SDS011;9357;49.900;8.208;2022-09-14T03:52:18;17.60;;;14.40;;
18455;SDS011;9357;49.900;8.208;2022-09-14T03:53:50;15.53;;;13.30;;
18455;SDS011;9357;49.900;8.208;2022-09-14T03:55:22;15.17;;;12.97;;
18455;SDS011;9357;49.900;8.208;2022-09-14T03:56:55;14.73;;;12.00;;
18455;SDS011;9357;49.900;8.208;2022-09-14T03:58:30;14.13;;;11.13;;
18455;SDS011;9357;49.900;8.208;2022-09-14T04:00:03;9.93;;;8.90;;
18455;SDS011;9357;49.900;8.208;2022-09-14T04:01:38;13.00;;;9.23;;
18455;SDS011;9357;49.900;8.208;2022-09-14T04:03:11;13.03;;;10.10;;
18455;SDS011;9357;49.900;8.208;2022-09-14T04:04:45;10.97;;;9.77;;
18455;SDS011;9357;49.900;8.208;2022-09-14T04:06:18;15.00;;;10.53;;
18455;SDS011;9357;49.900;8.208;2022-09-14T04:07:51;12.70;;;10.37;;
18455;SDS011;9357;49.900;8.208;2022-09-14T04:09:24;11.00;;;9.20;;
18455;SDS011;9357;49.900;8.208;2022-09-14T04:10:56;11.47;;;10.07;;
18455;SDS011;9357;49.900;8.208;2022-09-14T04:12:32;12.57;;;10.20;;
18455;SDS011;9357;49.900;8.208;2022-09-14T04:14:05;11.53;;;9.63;;
18455;SDS011;9357;49.900;8.208;2022-09-14T04:15:38;10.63;;;9.10;;
18455;SDS011;9357;49.900;8.208;2022-09-14T04:17:10;11.03;;;8.83;;
18455;SDS011;9357;49.900;8.208;2022-09-14T04:18:43;9.83;;;8.63;;
18455;SDS011;9357;49.900;8.208;2022-09-14T04:20:17;9.67;;;8.33;;
18455;SDS011;9357;49.900;8.208;2022-09-14T04:21:50;11.93;;;9.10;;
18455;SDS011;9357;49.900;8.208;2022-09-14T04:23:23;10.53;;;9.27;;
18455;SDS011;9357;49.900;8.208;2022-09-14T04:24:56;10.73;;;9.23;;
18455;SDS011;9357;49.900;8.208;2022-09-14T04:26:29;11.70;;;9.97;;
18455;SDS011;9357;49.900;8.208;2022-09-14T04:28:01;10.60;;;9.50;;
18455;SDS011;9357;49.900;8.208;2022-09-14T04:29:50;11.30;;;9.67;;
18455;SDS011;9357;49.900;8.208;2022-09-14T04:31:23;9.70;;;8.70;;
18455;SDS011;9357;49.900;8.208;2022-09-14T04:32:55;12.27;;;10.00;;
18455;SDS011;9357;49.900;8.208;2022-09-14T04:34:28;12.57;;;10.13;;
18455;SDS011;9357;49.900;8.208;2022-09-14T04:36:03;10.23;;;9.13;;
18455;SDS011;9357;49.900;8.208;2022-09-14T04:37:37;9.53;;;8.53;;
18455;SDS011;9357;49.900;8.208;2022-09-14T04:39:11;10.57;;;9.47;;
18455;SDS011;9357;49.900;8.208;2022-09-14T04:40:45;11.43;;;9.53;;
18455;SDS011;9357;49.900;8.208;2022-09-14T04:42:17;10.73;;;9.60;;
18455;SDS011;9357;49.900;8.208;2022-09-14T04:43:50;11.37;;;9.83;;
18455;SDS011;9357;49.900;8.208;2022-09-14T04:45:25;11.43;;;10.23;;
18455;SDS011;9357;49.900;8.208;2022-09-14T04:46:57;12.90;;;10.50;;
18455;SDS011;9357;49.900;8.208;2022-09-14T04:48:30;10.33;;;9.20;;
18455;SDS011;9357;49.900;8.208;2022-09-14T04:50:05;10.60;;;9.40;;
18455;SDS011;9357;49.900;8.208;2022-09-14T04:51:39;11.63;;;10.03;;
18455;SDS011;9357;49.900;8.208;2022-09-14T04:53:12;11.03;;;8.57;;
18455;SDS011;9357;49.900;8.208;2022-09-14T04:54:45;12.20;;;9.43;;
18455;SDS011;9357;49.900;8.208;2022-09-14T04:56:18;10.33;;;8.97;;
18455;SDS011;9357;49.900;8.208;2022-09-14T04:57:52;9.47;;;8.53;;
18455;SDS011;9357;49.900;8.208;2022-09-14T04:59:25;8.40;;;7.60;;
18455;SDS011;9357;49.900;8.208;2022-09-14T05:01:00;11.00;;;9.73;;
18455;SDS011;9357;49.900;8.208;2022-09-14T05:02:32;11.13;;;9.70;;
18455;SDS011;9357;49.900;8.208;2022-09-14T05:04:05;9.13;;;8.30;;
18455;SDS011;9357;49.900;8.208;2022-09-14T05:05:38;9.30;;;8.40;;
18455;SDS011;9357;49.900;8.208;2022-09-14T05:07:16;7.87;;;7.07;;
18455;SDS011;9357;49.900;8.208;2022-09-14T05:08:49;8.00;;;7.07;;
18455;SDS011;9357;49.900;8.208;2022-09-14T05:10:21;7.03;;;6.33;;
18455;SDS011;9357;49.900;8.208;2022-09-14T05:11:54;10.87;;;9.77;;
18455;SDS011;9357;49.900;8.208;2022-09-14T05:13:26;8.93;;;8.03;;
18455;SDS011;9357;49.900;8.208;2022-09-14T05:14:59;8.27;;;7.40;;
18455;SDS011;9357;49.900;8.208;2022-09-14T05:16:33;7.87;;;7.13;;
18455;SDS011;9357;49.900;8.208;2022-09-14T05:18:07;9.87;;;8.87;;
18455;SDS011;9357;49.900;8.208;2022-09-14T05:19:40;7.27;;;6.57;;
18455;SDS011;9357;49.900;8.208;2022-09-14T05:21:18;10.70;;;9.70;;
18455;SDS011;9357;49.900;8.208;2022-09-14T05:22:53;8.30;;;7.50;;
18455;SDS011;9357;49.900;8.208;2022-09-14T05:24:26;9.43;;;8.47;;
18455;SDS011;9357;49.900;8.208;2022-09-14T05:25:59;11.10;;;10.00;;
18455;SDS011;9357;49.900;8.208;2022-09-14T05:27:32;10.00;;;8.93;;
18455;SDS011;9357;49.900;8.208;2022-09-14T05:29:04;10.17;;;9.20;;
18455;SDS011;9357;49.900;8.208;2022-09-14T05:30:38;9.57;;;8.63;;
18455;SDS011;9357;49.900;8.208;2022-09-14T05:32:11;12.10;;;10.90;;
18455;SDS011;9357;49.900;8.208;2022-09-14T05:33:44;12.30;;;10.90;;
18455;SDS011;9357;49.900;8.208;2022-09-14T05:35:17;9.13;;;8.13;;
18455;SDS011;9357;49.900;8.208;2022-09-14T05:36:50;12.53;;;11.23;;
18455;SDS011;9357;49.900;8.208;2022-09-14T05:38:24;13.47;;;11.73;;
18455;SDS011;9357;49.900;8.208;2022-09-14T05:39:58;14.17;;;12.50;;
18455;SDS011;9357;49.900;8.208;2022-09-14T05:41:31;14.57;;;12.93;;
18455;SDS011;9357;49.900;8.208;2022-09-14T05:43:04;16.73;;;13.70;;
18455;SDS011;9357;49.900;8.208;2022-09-14T05:44:36;18.57;;;14.77;;
18455;SDS011;9357;49.900;8.208;2022-09-14T05:46:10;18.30;;;15.17;;
18455;SDS011;9357;49.900;8.208;2022-09-14T05:47:44;13.03;;;11.33;;
18455;SDS011;9357;49.900;8.208;2022-09-14T05:49:17;13.70;;;12.27;;
18455;SDS011;9357;49.900;8.208;2022-09-14T05:50:56;13.20;;;11.63;;
18455;SDS011;9357;49.900;8.208;2022-09-14T05:52:28;13.73;;;12.33;;
18455;SDS011;9357;49.900;8.208;2022-09-14T05:54:02;14.00;;;11.93;;
18455;SDS011;9357;49.900;8.208;2022-09-14T05:55:40;11.67;;;10.47;;
18455;SDS011;9357;49.900;8.208;2022-09-14T05:57:12;9.50;;;8.50;;
18455;SDS011;9357;49.900;8.208;2022-09-14T05:58:45;10.60;;;8.47;;
18455;SDS011;9357;49.900;8.208;2022-09-14T06:00:18;11.07;;;9.83;;
18455;SDS011;9357;49.900;8.208;2022-09-14T06:01:52;12.03;;;10.83;;
18455;SDS011;9357;49.900;8.208;2022-09-14T06:03:25;10.93;;;9.60;;
18455;SDS011;9357;49.900;8.208;2022-09-14T06:04:57;13.27;;;10.83;;
18455;SDS011;9357;49.900;8.208;2022-09-14T06:06:30;11.90;;;10.60;;
18455;SDS011;9357;49.900;8.208;2022-09-14T06:08:03;15.17;;;12.40;;
18455;SDS011;9357;49.900;8.208;2022-09-14T06:09:37;14.23;;;11.50;;
18455;SDS011;9357;49.900;8.208;2022-09-14T06:11:11;14.27;;;11.90;;
18455;SDS011;9357;49.900;8.208;2022-09-14T06:12:45;13.20;;;10.80;;
18455;SDS011;9357;49.900;8.208;2022-09-14T06:14:24;16.57;;;12.40;;
18455;SDS011;9357;49.900;8.208;2022-09-14T06:16:00;16.43;;;12.20;;
18455;SDS011;9357;49.900;8.208;2022-09-14T06:17:33;17.03;;;12.77;;
18455;SDS011;9357;49.900;8.208;2022-09-14T06:19:06;16.33;;;13.10;;
18455;SDS011;9357;49.900;8.208;2022-09-14T06:20:48;17.77;;;12.90;;
18455;SDS011;9357;49.900;8.208;2022-09-14T06:22:21;15.90;;;11.47;;
18455;SDS011;9357;49.900;8.208;2022-09-14T06:23:54;13.13;;;9.20;;
18455;SDS011;9357;49.900;8.208;2022-09-14T06:25:28;10.07;;;8.47;;
18455;SDS011;9357;49.900;8.208;2022-09-14T06:27:01;10.27;;;8.23;;
18455;SDS011;9357;49.900;8.208;2022-09-14T06:28:34;10.67;;;9.57;;
18455;SDS011;9357;49.900;8.208;2022-09-14T06:30:07;10.73;;;8.57;;
18455;SDS011;9357;49.900;8.208;2022-09-14T06:31:41;9.60;;;8.60;;
18455;SDS011;9357;49.900;8.208;2022-09-14T06:33:13;9.17;;;8.13;;
18455;SDS011;9357;49.900;8.208;2022-09-14T06:34:45;10.23;;;8.10;;
18455;SDS011;9357;49.900;8.208;2022-09-14T06:36:18;10.23;;;8.63;;
18455;SDS011;9357;49.900;8.208;2022-09-14T06:37:52;7.83;;;6.93;;
18455;SDS011;9357;49.900;8.208;2022-09-14T06:39:25;6.70;;;5.63;;
18455;SDS011;9357;49.900;8.208;2022-09-14T06:41:00;8.50;;;7.47;;
18455;SDS011;9357;49.900;8.208;2022-09-14T06:42:35;8.27;;;7.17;;
18455;SDS011;9357;49.900;8.208;2022-09-14T06:44:08;8.27;;;7.33;;
18455;SDS011;9357;49.900;8.208;2022-09-14T06:45:40;8.87;;;7.10;;
18455;SDS011;9357;49.900;8.208;2022-09-14T06:47:13;9.90;;;8.23;;
18455;SDS011;9357;49.900;8.208;2022-09-14T06:48:46;9.80;;;7.50;;
18455;SDS011;9357;49.900;8.208;2022-09-14T06:50:20;8.27;;;7.43;;
18455;SDS011;9357;49.900;8.208;2022-09-14T06:51:53;8.23;;;6.93;;
18455;SDS011;9357;49.900;8.208;2022-09-14T06:53:27;9.67;;;7.57;;
18455;SDS011;9357;49.900;8.208;2022-09-14T06:55:00;11.23;;;8.33;;
18455;SDS011;9357;49.900;8.208;2022-09-14T06:56:35;8.50;;;7.37;;
18455;SDS011;9357;49.900;8.208;2022-09-14T06:58:09;10.53;;;8.37;;
18455;SDS011;9357;49.900;8.208;2022-09-14T06:59:41;9.83;;;7.70;;
18455;SDS011;9357;49.900;8.208;2022-09-14T07:01:14;10.43;;;7.63;;
18455;SDS011;9357;49.900;8.208;2022-09-14T07:02:49;11.27;;;8.27;;
18455;SDS011;9357;49.900;8.208;2022-09-14T07:04:25;9.37;;;7.77;;
18455;SDS011;9357;49.900;8.208;2022-09-14T07:06:02;10.20;;;7.83;;
18455;SDS011;9357;49.900;8.208;2022-09-14T07:07:36;11.10;;;8.37;;
18455;SDS011;9357;49.900;8.208;2022-09-14T07:09:09;10.77;;;8.10;;
18455;SDS011;9357;49.900;8.208;2022-09-14T07:10:42;10.30;;;8.37;;
18455;SDS011;9357;49.900;8.208;2022-09-14T07:12:16;11.03;;;8.50;;
18455;SDS011;9357;49.900;8.208;2022-09-14T07:13:49;11.13;;;9.30;;
18455;SDS011;9357;49.900;8.208;2022-09-14T07:15:22;9.67;;;8.10;;
18455;SDS011;9357;49.900;8.208;2022-09-14T07:16:55;12.07;;;8.87;;
18455;SDS011;9357;49.900;8.208;2022-09-14T07:18:28;9.90;;;7.93;;
18455;SDS011;9357;49.900;8.208;2022-09-14T07:20:03;8.57;;;7.60;;
18455;SDS011;9357;49.900;8.208;2022-09-14T07:21:36;10.80;;;9.07;;
18455;SDS011;9357;49.900;8.208;2022-09-14T07:23:09;10.60;;;8.40;;
18455;SDS011;9357;49.900;8.208;2022-09-14T07:24:43;12.43;;;9.90;;
18455;SDS011;9357;49.900;8.208;2022-09-14T07:26:16;14.87;;;10.57;;
18455;SDS011;9357;49.900;8.208;2022-09-14T07:27:52;13.80;;;10.53;;
18455;SDS011;9357;49.900;8.208;2022-09-14T07:29:24;11.10;;;8.67;;
18455;SDS011;9357;49.900;8.208;2022-09-14T07:30:57;11.43;;;8.87;;
18455;SDS011;9357;49.900;8.208;2022-09-14T07:32:30;11.17;;;8.80;;
18455;SDS011;9357;49.900;8.208;2022-09-14T07:34:03;10.70;;;8.77;;
18455;SDS011;9357;49.900;8.208;2022-09-14T07:35:36;9.17;;;7.70;;
18455;SDS011;9357;49.900;8.208;2022-09-14T07:37:09;8.77;;;7.60;;
18455;SDS011;9357;49.900;8.208;2022-09-14T07:38:42;11.17;;;7.30;;
18455;SDS011;9357;49.900;8.208;2022-09-14T07:40:23;8.27;;;7.03;;
18455;SDS011;9357;49.900;8.208;2022-09-14T07:41:57;7.20;;;6.50;;
18455;SDS011;9357;49.900;8.208;2022-09-14T07:43:31;9.37;;;7.47;;
18455;SDS011;9357;49.900;8.208;2022-09-14T07:45:04;8.67;;;7.07;;
18455;SDS011;9357;49.900;8.208;2022-09-14T07:46:38;7.07;;;6.37;;
18455;SDS011;9357;49.900;8.208;2022-09-14T07:48:13;7.43;;;6.67;;
18455;SDS011;9357;49.900;8.208;2022-09-14T07:49:45;8.43;;;6.77;;
18455;SDS011;9357;49.900;8.208;2022-09-14T07:51:18;7.83;;;6.03;;
18455;SDS011;9357;49.900;8.208;2022-09-14T07:52:52;6.53;;;5.80;;
18455;SDS011;9357;49.900;8.208;2022-09-14T07:54:24;6.07;;;5.37;;
18455;SDS011;9357;49.900;8.208;2022-09-14T07:55:58;6.43;;;5.27;;
18455;SDS011;9357;49.900;8.208;2022-09-14T07:57:31;6.70;;;5.90;;
18455;SDS011;9357;49.900;8.208;2022-09-14T07:59:25;8.43;;;6.63;;
18455;SDS011;9357;49.900;8.208;2022-09-14T08:01:08;10.63;;;8.07;;
18455;SDS011;9357;49.900;8.208;2022-09-14T08:02:41;9.10;;;8.20;;
18455;SDS011;9357;49.900;8.208;2022-09-14T08:04:14;9.33;;;8.37;;
18455;SDS011;9357;49.900;8.208;2022-09-14T08:05:47;9.07;;;7.77;;
18455;SDS011;9357;49.900;8.208;2022-09-14T08:07:20;7.87;;;7.10;;
18455;SDS011;9357;49.900;8.208;2022-09-14T08:08:53;9.50;;;7.50;;
18455;SDS011;9357;49.900;8.208;2022-09-14T08:10:27;8.80;;;7.30;;
18455;SDS011;9357;49.900;8.208;2022-09-14T08:11:59;8.73;;;7.80;;
18455;SDS011;9357;49.900;8.208;2022-09-14T08:13:33;6.73;;;6.03;;
18455;SDS011;9357;49.900;8.208;2022-09-14T08:15:08;6.80;;;6.10;;
18455;SDS011;9357;49.900;8.208;2022-09-14T08:16:41;7.63;;;6.90;;
18455;SDS011;9357;49.900;8.208;2022-09-14T08:18:14;7.13;;;6.33;;
18455;SDS011;9357;49.900;8.208;2022-09-14T08:19:47;6.93;;;6.23;;
18455;SDS011;9357;49.900;8.208;2022-09-14T08:21:19;7.20;;;6.00;;
18455;SDS011;9357;49.900;8.208;2022-09-14T08:22:53;6.50;;;5.80;;
18455;SDS011;9357;49.900;8.208;2022-09-14T08:24:25;5.80;;;5.27;;
18455;SDS011;9357;49.900;8.208;2022-09-14T08:26:02;6.97;;;5.80;;
18455;SDS011;9357;49.900;8.208;2022-09-14T08:27:35;6.80;;;6.10;;
18455;SDS011;9357;49.900;8.208;2022-09-14T08:29:08;7.03;;;5.90;;
18455;SDS011;9357;49.900;8.208;2022-09-14T08:30:42;6.07;;;5.47;;
18455;SDS011;9357;49.900;8.208;2022-09-14T08:32:14;7.90;;;6.30;;
18455;SDS011;9357;49.900;8.208;2022-09-14T08:33:48;6.83;;;6.13;;
18455;SDS011;9357;49.900;8.208;2022-09-14T08:35:22;6.83;;;6.23;;
18455;SDS011;9357;49.900;8.208;2022-09-14T08:37:15;7.83;;;6.03;;
18455;SDS011;9357;49.900;8.208;2022-09-14T08:38:47;6.30;;;5.70;;
18455;SDS011;9357;49.900;8.208;2022-09-14T08:40:21;6.00;;;5.33;;
18455;SDS011;9357;49.900;8.208;2022-09-14T08:41:54;6.43;;;5.90;;
18455;SDS011;9357;49.900;8.208;2022-09-14T08:43:28;6.80;;;5.13;;
18455;SDS011;9357;49.900;8.208;2022-09-14T08:45:01;6.17;;;4.90;;
18455;SDS011;9357;49.900;8.208;2022-09-14T08:46:42;5.80;;;5.17;;
18455;SDS011;9357;49.900;8.208;2022-09-14T08:48:19;5.83;;;5.23;;
18455;SDS011;9357;49.900;8.208;2022-09-14T08:49:57;6.40;;;5.80;;
18455;SDS011;9357;49.900;8.208;2022-09-14T08:51:33;6.23;;;5.63;;
18455;SDS011;9357;49.900;8.208;2022-09-14T08:53:06;8.80;;;5.43;;
18455;SDS011;9357;49.900;8.208;2022-09-14T08:54:39;5.43;;;4.93;;
18455;SDS011;9357;49.900;8.208;2022-09-14T08:56:13;6.00;;;5.40;;
18455;SDS011;9357;49.900;8.208;2022-09-14T08:57:49;4.97;;;4.10;;
18455;SDS011;9357;49.900;8.208;2022-09-14T08:59:38;4.63;;;4.20;;
18455;SDS011;9357;49.900;8.208;2022-09-14T09:01:17;4.07;;;3.77;;
18455;SDS011;9357;49.900;8.208;2022-09-14T09:03:18;3.90;;;3.50;;
18455;SDS011;9357;49.900;8.208;2022-09-14T09:05:06;4.20;;;3.80;;
18455;SDS011;9357;49.900;8.208;2022-09-14T09:06:57;4.03;;;3.73;;
18455;SDS011;9357;49.900;8.208;2022-09-14T09:08:35;4.23;;;3.77;;
18455;SDS011;9357;49.900;8.208;2022-09-14T09:10:18;5.20;;;4.00;;
18455;SDS011;9357;49.900;8.208;2022-09-14T09:11:52;4.30;;;3.77;;
18455;SDS011;9357;49.900;8.208;2022-09-14T09:13:28;4.60;;;4.10;;
18455;SDS011;9357;49.900;8.208;2022-09-14T09:15:05;4.77;;;4.10;;
18455;SDS011;9357;49.900;8.208;2022-09-14T09:16:50;4.40;;;4.00;;
18455;SDS011;9357;49.900;8.208;2022-09-14T09:18:28;4.40;;;4.00;;
18455;SDS011;9357;49.900;8.208;2022-09-14T09:20:08;3.97;;;3.67;;
18455;SDS011;9357;49.900;8.208;2022-09-14T09:21:44;4.00;;;3.60;;
18455;SDS011;9357;49.900;8.208;2022-09-14T09:23:19;4.00;;;3.70;;
18455;SDS011;9357;49.900;8.208;2022-09-14T09:24:53;3.60;;;3.30;;
18455;SDS011;9357;49.900;8.208;2022-09-14T09:26:27;4.80;;;3.90;;
18455;SDS011;9357;49.900;8.208;2022-09-14T09:28:01;4.10;;;3.70;;
18455;SDS011;9357;49.900;8.208;2022-09-14T09:29:41;4.13;;;3.73;;
18455;SDS011;9357;49.900;8.208;2022-09-14T09:31:15;4.83;;;4.10;;
18455;SDS011;9357;49.900;8.208;2022-09-14T09:32:50;5.27;;;4.20;;
18455;SDS011;9357;49.900;8.208;2022-09-14T09:34:26;4.00;;;3.70;;